• Join FlightAware (Why Join?)
  • Login
  • US Flag 
04:25PM EDT


 

Airport Tracker/Info


-or-


 

Live Flight TrackerFlight Track Log ✈ AAL2345 ✈ 03-Jun-2013 ✈ KORD - KDFW

Flight Track Log - Related Links

Times and Time Zones

All times are in EDT time to prevent confusion due to time zone crossing. See the AAL2345 flight status page for this flight to view local times or setup timezone preferences in your user account.

Time Position Orientation Groundspeed Altitude Reporting Facility
EDT Latitude Longitude Course Direction KTS MPH feet Rate Location/Type
06:47PM 41.9167 -87.9167 207° Southwest 173 199 2,600  Level Chicago TRACON
06:48PM 41.8667 -87.9333 194° South 225 259 4,600 1,980 Climbing Chicago TRACON
06:49PM 41.8061 -87.9639 201° Southwest 241 277 6,500 2,460 Climbing Chicago Center
06:50PM 41.7469 -88.1843 201° Southwest  Level Estimated
06:50PM 41.7322 -88.0069 204° Southwest 290 334 9,600  Level Chicago Center
06:51PM 41.6685 -88.2764 197° South  Level Estimated
06:52PM 41.5718 -88.2243 158° South  Level FlightAware Approximate
06:52PM 41.6533 -88.0475 201° Southwest 304 350 12,300  Level Chicago Center
06:53PM 41.4914 -88.3200 207° Southwest  Level Estimated
06:53PM 41.5517 -88.1025 202° Southwest 337 388 14,300  Level Chicago Center
06:54PM 41.4558 -88.1536 202° Southwest 381 438 16,200 1,980 Climbing Chicago Center
06:55PM 41.3544 -88.2039 200° South 402 463 18,500 1,920 Climbing Chicago Center
06:56PM 41.2275 -88.2603 198° South 407 468 20,200 1,740 Climbing Chicago Center
06:57PM 41.1200 -88.3092 199° South 409 471 22,100 1,740 Climbing Chicago Center
06:58PM 41.0103 -88.3578 198° South 415 478 23,900 1,320 Climbing Chicago Center
06:59PM 40.8969 -88.4097 199° South 429 494 24,900 1,200 Climbing Chicago Center
07:00PM 40.7789 -88.4619 199° South 446 513 26,500 1,440 Climbing Chicago Center
07:01PM 40.6358 -88.5239 198° South 454 522 28,000 720 Climbing Chicago Center
07:02PM 40.5408 -88.6181 217° Southwest 441 507 28,000 720 Level Chicago Center
07:03PM 40.4622 -88.7150 223° Southwest 436 502 29,500 960 Climbing Chicago Center
07:04PM 40.3536 -88.8383 221° Southwest 430 495 30,000 240 Climbing Chicago Center
07:05PM 40.2636 -88.9447 222° Southwest 434 499 30,000  Level Chicago Center
07:06PM 40.1731 -89.0500 222° Southwest 434 499 30,000  Level Chicago Center
07:07PM 40.0992 -89.1328 221° Southwest 432 497 30,000  Level Kansas City Center
07:08PM 39.9925 -89.2581 222° Southwest 430 495 30,000  Level Kansas City Center
07:09PM 39.9025 -89.3603 221° Southwest 428 493 30,000  Level Kansas City Center
07:10PM 39.8122 -89.4639 221° Southwest 430 495 30,000  Level Kansas City Center
07:11PM 39.7208 -89.5669 221° Southwest 432 497 30,000  Level Kansas City Center
07:12PM 39.6350 -89.6669 222° Southwest 434 499 30,000 180 Level Kansas City Center
07:13PM 39.5275 -89.7894 221° Southwest 431 496 30,400 660 Climbing Kansas City Center
07:14PM 39.4369 -89.8911 221° Southwest 431 496 31,400 720 Climbing Kansas City Center
07:15PM 39.3475 -89.9925 221° Southwest 430 495 32,000 240 Climbing Kansas City Center
07:16PM 39.2589 -90.0933 221° Southwest 427 491 32,000  Level Kansas City Center
07:17PM 39.1689 -90.1936 221° Southwest 429 494 32,000  Level Kansas City Center
07:18PM 39.0797 -90.2947 221° Southwest 429 494 32,000  Level Kansas City Center
07:19PM 38.9717 -90.4147 221° Southwest 431 496 32,000  Level Kansas City Center
07:20PM 38.8836 -90.5111 220° Southwest 425 489 32,000  Level Kansas City Center
07:21PM 38.7928 -90.6117 221° Southwest 426 490 32,000  Level Kansas City Center
07:22PM 38.7031 -90.7119 221° Southwest 439 505 32,000  Level Kansas City Center
07:23PM 38.5953 -90.8261 220° Southwest 427 491 32,000  Level Kansas City Center
07:25PM 38.5061 -90.9247 221° Southwest 427 491 32,000  Level Kansas City Center
07:26PM 38.4169 -91.0203 220° Southwest 423 487 32,000  Level Kansas City Center
07:27PM 38.3286 -91.1147 220° Southwest 419 482 32,000  Level Kansas City Center
07:28PM 38.2419 -91.2083 220° Southwest 412 474 32,000  Level Kansas City Center
07:29PM 38.1464 -91.3106 220° Southwest 411 473 32,000  Level Kansas City Center
07:30PM 38.0586 -91.4042 220° Southwest 410 472 32,000  Level Kansas City Center
07:31PM 37.9697 -91.5003 220° Southwest 414 476 32,000  Level Kansas City Center
07:32PM 37.8625 -91.6139 220° Southwest 415 478 32,000  Level Kansas City Center
07:33PM 37.7742 -91.7094 221° Southwest 416 479 32,000  Level Kansas City Center
07:34PM 37.6844 -91.8050 220° Southwest 417 480 32,000  Level Kansas City Center
07:35PM 37.5928 -91.9014 220° Southwest 421 484 32,000  Level Kansas City Center
07:36PM 37.5047 -91.9950 220° Southwest 415 478 32,000  Level Kansas City Center
07:37PM 37.4183 -92.0906 221° Southwest 410 472 32,000  Level Kansas City Center
07:38PM 37.3303 -92.1894 222° Southwest 417 480 32,000  Level Kansas City Center
07:39PM 37.2456 -92.2844 222° Southwest 411 473 32,000  Level Kansas City Center
07:40PM 37.1600 -92.3786 221° Southwest 407 468 32,000  Level Kansas City Center
07:41PM 37.0578 -92.4900 221° Southwest 405 466 32,000  Level Kansas City Center
07:42PM 36.9725 -92.5833 221° Southwest 404 465 32,000  Level Kansas City Center
07:43PM 36.8886 -92.6747 221° Southwest 400 460 32,000  Level Kansas City Center
07:44PM 36.8033 -92.7658 221° Southwest 400 460 32,000 -180 Level Kansas City Center
07:45PM 36.7189 -92.8569 221° Southwest 401 461 31,700 -720 Descending Kansas City Center
07:46PM 36.6350 -92.9486 221° Southwest 400 460 30,600 -840 Descending Kansas City Center
07:47PM 36.5444 -93.0431 220° Southwest 406 467 30,000 -840 Descending Kansas City Center
07:48PM 36.4608 -93.1358 222° Southwest 404 465 28,900 -1,020 Descending Kansas City Center
07:49PM 36.3786 -93.2244 221° Southwest 396 456 28,000 -540 Descending Kansas City Center
07:50PM 36.3072 -93.3031 222° Southwest 406 467 28,000  Level Memphis Center
07:51PM 36.2239 -93.3928 221° Southwest 401 461 28,000  Level Memphis Center
07:52PM 36.1406 -93.4797 220° Southwest 401 461 28,000  Level Memphis Center
07:53PM 36.0567 -93.5714 221° Southwest 401 461 28,000  Level Memphis Center
07:54PM 35.9731 -93.6606 221° Southwest 396 456 28,000  Level Memphis Center
07:55PM 35.8894 -93.7494 221° Southwest 396 456 28,000  Level Memphis Center
07:56PM 35.8036 -93.8381 220° Southwest 396 456 28,000  Level Memphis Center
07:57PM 35.7197 -93.9267 221° Southwest 396 456 28,000  Level Memphis Center
07:58PM 35.6339 -94.0147 220° Southwest 401 461 28,000  Level Memphis Center
07:59PM 35.5478 -94.1028 220° Southwest 401 461 28,000  Level Memphis Center
08:00PM 35.4636 -94.1908 220° Southwest 401 461 28,000  Level Memphis Center
08:01PM 35.3794 -94.2811 221° Southwest 401 461 28,000  Level Memphis Center
08:02PM 35.2911 -94.3739 221° Southwest 401 461 28,000  Level Memphis Center
08:04PM 35.1644 -94.5211 224° Southwest 415 478 28,000  Level Fort Worth Center
08:05PM 35.0767 -94.6128 221° Southwest 415 478 28,000  Level Fort Worth Center
08:06PM 34.9933 -94.7042 222° Southwest 415 478 28,000  Level Fort Worth Center
08:07PM 34.9056 -94.7981 221° Southwest 415 478 28,000  Level Fort Worth Center
08:08PM 34.8117 -94.8997 222° Southwest 415 478 28,000  Level Fort Worth Center
08:09PM 34.7258 -94.9931 222° Southwest 421 484 28,000 -540 Level Fort Worth Center
08:10PM 34.6378 -95.0839 220° Southwest 415 478 27,000 -1,020 Descending Fort Worth Center
08:11PM 34.5539 -95.1744 222° Southwest 415 478 26,000 -1,020 Descending Fort Worth Center
08:12PM 34.4700 -95.2622 221° Southwest 409 471 25,000 -1,020 Descending Fort Worth Center
08:13PM 34.3839 -95.3525 221° Southwest 409 471 24,000 -540 Descending Fort Worth Center
08:14PM 34.3039 -95.4400 222° Southwest 409 471 24,000  Level Fort Worth Center
08:15PM 34.2197 -95.5272 221° Southwest 409 471 24,000 -60 Level Fort Worth Center
08:16PM 34.1356 -95.6119 220° Southwest 404 465 23,900 -780 Descending Fort Worth Center
08:17PM 34.0511 -95.6989 220° Southwest 404 465 22,500 -1,440 Descending Fort Worth Center
08:18PM 33.9708 -95.7806 220° Southwest 392 451 21,100 -1,500 Descending Fort Worth Center
08:19PM 33.8925 -95.8672 223° Southwest 392 451 19,500 -1,620 Descending Fort Worth Center
08:20PM 33.8142 -95.9461 220° Southwest 392 451 17,900 -1,620 Descending Fort Worth Center
08:21PM 33.7275 -96.0397 222° Southwest 393 452 16,300 -1,500 Descending Fort Worth Center
08:22PM 33.6553 -96.1133 220° Southwest 387 445 15,000 -1,440 Descending Fort Worth Center
08:23PM 33.5728 -96.1994 221° Southwest 373 429 13,500 -1,440 Descending Fort Worth Center
08:24PM 33.5067 -96.2725 223° Southwest 367 422 12,200 -1,200 Descending Fort Worth Center
08:25PM 33.4406 -96.3531 225° Southwest 329 379 11,100 -660 Descending Fort Worth Center
08:26PM 33.3889 -96.4133 224° Southwest 298 343 10,900 -780 Descending Fort Worth Center
08:27PM 33.3267 -96.4886 225° Southwest 292 336 9,600 -1,200 Descending Fort Worth Center
08:28PM 33.2878 -96.5611 237° Southwest 292 336 8,500 -1,140 Descending Fort Worth Center
08:29PM 33.2589 -96.6458 248° West 287 330 7,400 -1,200 Descending Fort Worth Center
08:30PM 33.2283 -96.7428 249° West 287 330 6,200 -780 Descending Fort Worth Center
08:31PM 33.1847 -96.8053 230° Southwest 277 319 5,900 -900 Descending Fort Worth Center
08:32PM 33.1350 -96.8825 232° Southwest 277 319 4,500 -1,140 Descending Fort Worth Center
08:32PM 33.1000 -96.9333 231° Southwest 247 284 4,000 -960 Descending Dallas / Fort Worth TRACON
08:33PM 33.0667 -96.9833 232° Southwest 216 249 2,900 -1,140 Descending Dallas / Fort Worth TRACON